Terminal Aerodrome Forecast
Issued by NWS

Home | Current Version | Previous Version | Text Only | Print | Product List | Glossary On
Versions: 1 2 3 4 5 6 7 8 9 10 11 12 13 14 15 16 17 18 19 20 21 22 23 24 25 26 27 28
000
FTUS41 KPBZ 292320
TAFFKL
TAF
KFKL 292320Z 3000/3024 02008KT P6SM BKN250
     FM300700 08006KT P6SM BKN120
     FM301600 11010G18KT 5SM -RA OVC035
     FM302100 15012G18KT P6SM BKN035
      AMD LTD TO CLD VIS AND WIND=

USA.gov is the U.S. government's official web portal to all federal, state and local government web resources and services.